Time;durP1;ratioP1;P1;durP2;ratioP2;P2;SDS_P1;SDS_P2;PMS_P1;PMS_P2;Temp;Humidity;BMP_temperature;BMP_pressure;BME280_temperature;BME280_humidity;BME280_pressure;Samples;Min_cycle;Max_cycle;Signal;HPM_P1;HPM_P2
2023/10/15 00:00:13;;;;;;;3.10;0.90;;;7.70;99.90;;;;;;5029209;28;20544;-85
2023/10/15 00:02:41;;;;;;;3.22;1.00;;;7.60;99.90;;;;;;5014923;28;20112;-84
2023/10/15 00:05:12;;;;;;;4.93;0.80;;;7.50;99.90;;;;;;5029850;28;20083;-85
2023/10/15 00:07:42;;;;;;;4.10;0.90;;;7.40;99.90;;;;;;5014442;28;20055;-85
2023/10/15 00:10:12;;;;;;;3.90;1.00;;;7.30;99.90;;;;;;5045112;28;20056;-85
2023/10/15 00:12:39;;;;;;;4.95;1.67;;;7.30;99.90;;;;;;5031680;28;20037;-85
2023/10/15 00:15:07;;;;;;;2.70;0.85;;;7.90;99.90;;;;;;5029413;28;20048;-85
2023/10/15 00:17:34;;;;;;;4.50;0.88;;;7.20;99.90;;;;;;5011567;28;20534;-86
2023/10/15 00:20:00;;;;;;;5.70;0.70;;;7.20;99.90;;;;;;5029263;28;20167;-85
2023/10/15 00:22:26;;;;;;;2.25;0.90;;;7.40;99.90;;;;;;5031042;28;20094;-85
2023/10/15 00:24:52;;;;;;;5.55;0.95;;;7.20;99.90;;;;;;5013370;28;20505;-84
2023/10/15 00:27:20;;;;;;;4.30;0.80;;;7.20;99.90;;;;;;5009139;28;20052;-84
2023/10/15 00:29:45;;;;;;;4.65;0.95;;;7.30;99.90;;;;;;5023745;28;20053;-84
2023/10/15 00:32:12;;;;;;;2.33;0.82;;;7.20;99.90;;;;;;5029859;28;20336;-84
2023/10/15 00:34:38;;;;;;;5.53;1.15;;;7.10;99.90;;;;;;5029288;28;20044;-84
2023/10/15 00:37:05;;;;;;;8.07;1.42;;;7.30;99.90;;;;;;5012975;28;20040;-85
2023/10/15 00:39:31;;;;;;;4.90;0.80;;;7.30;99.90;;;;;;5030031;28;20120;-84
2023/10/15 00:41:56;;;;;;;1.48;0.55;;;7.30;99.90;;;;;;5028678;28;20611;-84
2023/10/15 00:44:22;;;;;;;2.30;0.75;;;7.30;99.90;;;;;;5030354;28;20065;-85
2023/10/15 00:46:54;;;;;;;3.00;0.73;;;7.30;99.90;;;;;;5029727;28;20432;-85
2023/10/15 00:49:24;;;;;;;7.80;1.20;;;6.70;99.90;;;;;;5029051;28;20051;-85
2023/10/15 00:51:51;;;;;;;2.38;0.88;;;7.30;99.90;;;;;;5028833;28;20453;-85
2023/10/15 00:54:17;;;;;;;4.40;1.15;;;7.30;99.90;;;;;;5029086;28;20045;-85
2023/10/15 00:56:47;;;;;;;2.70;0.80;;;7.30;99.90;;;;;;5012914;28;20732;-85
2023/10/15 01:01:53;;;;;;;3.55;1.25;;;7.30;99.90;;;;;;5026156;28;20103;-85
2023/10/15 01:04:24;;;;;;;2.28;0.60;;;7.30;99.90;;;;;;5028502;28;20075;-85
2023/10/15 01:06:50;;;;;;;2.45;0.80;;;7.40;99.90;;;;;;5045043;28;20059;-85
2023/10/15 01:09:20;;;;;;;2.25;0.85;;;7.40;99.90;;;;;;5028376;28;20053;-85
2023/10/15 01:11:56;;;;;;;;;;;7.40;99.90;;;;;;5029848;28;20053;-85
2023/10/15 01:14:32;;;;;;;2.05;0.82;;;7.30;99.90;;;;;;5012680;28;19921;-85
2023/10/15 01:17:02;;;;;;;3.15;0.60;;;7.90;99.90;;;;;;5029344;28;20083;-85
2023/10/15 01:19:32;;;;;;;3.10;0.90;;;7.30;99.90;;;;;;5029476;28;20049;-86
2023/10/15 01:22:02;;;;;;;5.07;1.42;;;7.30;99.90;;;;;;5029897;28;20179;-85
2023/10/15 01:24:32;;;;;;;4.80;0.85;;;7.30;99.90;;;;;;5030310;28;20451;-85
2023/10/15 01:29:34;;;;;;;2.95;0.95;;;7.30;99.90;;;;;;5013032;28;20410;-84
2023/10/15 01:32:06;;;;;;;2.03;1.05;;;7.20;99.90;;;;;;5029719;28;20040;-85
2023/10/15 01:34:37;;;;;;;2.75;0.95;;;7.20;99.90;;;;;;5026839;28;20137;-86
2023/10/15 01:40:01;;;;;;;1.23;0.60;;;7.20;99.90;;;;;;5015261;28;20073;-85
2023/10/15 01:44:55;;;;;;;2.55;0.70;;;7.20;99.90;;;;;;5027155;28;20048;-85
2023/10/15 01:47:34;;;;;;;4.43;0.93;;;7.50;99.90;;;;;;5028323;28;20049;-84
2023/10/15 01:50:00;;;;;;;2.45;0.70;;;7.30;99.90;;;;;;5027890;28;20514;-83
2023/10/15 01:52:39;;;;;;;2.63;0.75;;;7.30;99.90;;;;;;5030265;28;20498;-85
2023/10/15 01:55:05;;;;;;;4.15;1.02;;;7.20;99.90;;;;;;5017690;28;20161;-85
2023/10/15 01:57:31;;;;;;;1.45;0.70;;;7.10;99.90;;;;;;5028812;28;20414;-84
2023/10/15 02:02:40;;;;;;;2.35;0.88;;;7.00;99.90;;;;;;5017115;28;20052;-85
2023/10/15 02:05:16;;;;;;;5.38;1.25;;;7.40;99.90;;;;;;5013917;28;20046;-86
2023/10/15 02:07:43;;;;;;;3.45;0.82;;;6.90;99.90;;;;;;5020310;28;20437;-85
2023/10/15 02:10:12;;;;;;;3.35;0.80;;;6.90;99.90;;;;;;5027794;28;20119;-85
2023/10/15 02:12:38;;;;;;;4.70;1.17;;;6.80;99.90;;;;;;5027141;28;20044;-85
2023/10/15 02:15:14;;;;;;;2.58;0.80;;;7.30;99.90;;;;;;5028537;28;20056;-85
2023/10/15 02:17:42;;;;;;;5.22;1.13;;;6.70;99.90;;;;;;5043874;28;20052;-85
2023/10/15 02:20:11;;;;;;;3.95;0.90;;;6.90;99.90;;;;;;5039641;28;20064;-86
2023/10/15 02:22:38;;;;;;;2.80;1.08;;;6.60;99.90;;;;;;5041207;28;20067;-85
2023/10/15 02:25:04;;;;;;;3.53;0.98;;;6.60;99.90;;;;;;5011116;28;20041;-85
2023/10/15 02:27:35;;;;;;;2.70;0.82;;;6.50;99.90;;;;;;5028852;28;20131;-86
2023/10/15 02:30:01;;;;;;;2.22;0.68;;;6.50;99.90;;;;;;5027554;28;20045;-86
2023/10/15 02:34:54;;;;;;;1.77;0.80;;;6.40;99.90;;;;;;5026722;28;20576;-86
2023/10/15 02:37:26;;;;;;;4.28;1.20;;;6.40;99.90;;;;;;5035535;28;20144;-86
2023/10/15 02:39:51;;;;;;;2.53;0.75;;;6.40;99.90;;;;;;5030309;28;20045;-86
2023/10/15 02:42:18;;;;;;;2.85;0.80;;;6.40;99.90;;;;;;5030664;28;20130;-86
2023/10/15 02:44:44;;;;;;;2.95;0.77;;;6.90;99.90;;;;;;5015580;28;20818;-85
2023/10/15 02:47:55;;;;;;;3.85;1.17;;;6.50;99.90;;;;;;5013624;28;20098;-85
2023/10/15 02:50:02;;;;;;;2.55;0.90;;;6.40;99.90;;;;;;5024164;28;20144;-86
2023/10/15 02:52:35;;;;;;;1.73;0.70;;;6.50;99.90;;;;;;5029862;28;20098;-86
2023/10/15 02:55:09;;;;;;;2.38;0.80;;;6.40;99.90;;;;;;5015746;28;20048;-85
2023/10/15 02:57:39;;;;;;;2.38;0.70;;;6.40;99.90;;;;;;5025520;28;20084;-86
2023/10/15 03:00:28;;;;;;;4.28;1.00;;;6.40;99.90;;;;;;5024115;28;20045;-86
2023/10/15 03:02:55;;;;;;;2.92;0.95;;;6.40;99.90;;;;;;5028099;28;20033;-86
2023/10/15 03:05:30;;;;;;;5.18;1.50;;;6.30;99.90;;;;;;5031478;28;20080;-86
2023/10/15 03:07:56;;;;;;;2.17;0.65;;;6.30;99.90;;;;;;5028814;28;20119;-86
2023/10/15 03:10:21;;;;;;;1.42;0.80;;;6.30;99.90;;;;;;5014806;28;20430;-86
2023/10/15 03:12:50;;;;;;;2.20;0.90;;;6.30;99.90;;;;;;5019692;28;20044;-86
2023/10/15 03:15:17;;;;;;;1.90;0.90;;;6.30;99.90;;;;;;5031425;28;20040;-85
2023/10/15 03:17:46;;;;;;;2.83;1.02;;;6.20;99.90;;;;;;5031561;28;20048;-87
2023/10/15 03:22:46;;;;;;;4.50;0.90;;;6.10;99.90;;;;;;5028282;28;20191;-86
2023/10/15 03:25:15;;;;;;;1.83;0.60;;;6.10;99.90;;;;;;5030934;28;20066;-86
2023/10/15 03:27:46;;;;;;;3.22;0.80;;;6.10;99.90;;;;;;5038212;28;20045;-86
2023/10/15 03:30:13;;;;;;;3.08;1.08;;;6.00;99.90;;;;;;5049388;28;20329;-86
2023/10/15 03:32:44;;;;;;;3.97;0.90;;;6.00;99.90;;;;;;5014161;28;20056;-86
2023/10/15 03:35:17;;;;;;;1.65;0.80;;;6.00;99.90;;;;;;5031407;28;20064;-86
2023/10/15 03:37:47;;;;;;;2.95;0.93;;;5.90;99.90;;;;;;5030182;28;20147;-86
2023/10/15 03:40:29;;;;;;;1.98;0.90;;;5.90;99.90;;;;;;5014223;28;20432;-85
2023/10/15 03:43:06;;;;;;;2.65;1.00;;;5.90;99.90;;;;;;5029704;28;20045;-85
2023/10/15 03:45:51;;;;;;;4.10;0.90;;;5.80;99.90;;;;;;5032281;28;20045;-86
2023/10/15 03:48:28;;;;;;;5.90;0.90;;;5.90;99.90;;;;;;5024483;28;20043;-86
2023/10/15 03:50:55;;;;;;;3.63;1.10;;;5.90;99.90;;;;;;5030812;28;20041;-86
2023/10/15 03:53:27;;;;;;;2.58;0.80;;;5.80;99.90;;;;;;5010729;28;20056;-86
2023/10/15 03:55:58;;;;;;;3.30;0.75;;;5.80;99.90;;;;;;5013393;28;20553;-86
2023/10/15 03:58:28;;;;;;;1.90;0.60;;;5.80;99.90;;;;;;5031895;28;20095;-86
2023/10/15 04:03:43;;;;;;;1.98;0.70;;;5.70;99.90;;;;;;5029836;28;20139;-87
2023/10/15 04:06:09;;;;;;;3.95;1.20;;;5.60;99.90;;;;;;5029352;28;20052;-86
2023/10/15 04:08:37;;;;;;;3.42;0.82;;;5.60;99.90;;;;;;5036784;28;20056;-86
2023/10/15 04:11:03;;;;;;;3.95;0.82;;;5.60;99.90;;;;;;5047107;28;20050;-86
2023/10/15 04:13:29;;;;;;;3.05;0.80;;;5.60;99.90;;;;;;5031490;28;20095;-86
2023/10/15 04:15:56;;;;;;;3.63;0.82;;;5.50;99.90;;;;;;5030551;28;20895;-85
2023/10/15 04:18:25;;;;;;;1.90;0.80;;;5.50;99.90;;;;;;5031562;28;20107;-86
2023/10/15 04:20:56;;;;;;;3.42;0.80;;;5.50;99.90;;;;;;5013602;28;20057;-86
2023/10/15 04:23:31;;;;;;;4.43;1.10;;;5.50;99.90;;;;;;5030379;28;20140;-86
2023/10/15 04:26:16;;;;;;;3.10;1.20;;;5.50;99.90;;;;;;5029662;28;20183;-86
2023/10/15 04:28:42;;;;;;;2.80;0.90;;;5.50;99.90;;;;;;5034657;28;20140;-87
2023/10/15 04:31:22;;;;;;;3.38;1.10;;;5.50;99.90;;;;;;5014632;28;20048;-87
2023/10/15 04:33:52;;;;;;;4.93;0.98;;;5.90;99.90;;;;;;5014327;28;20052;-87
2023/10/15 04:36:18;;;;;;;2.55;1.23;;;5.60;99.90;;;;;;5013461;28;20091;-85
2023/10/15 04:38:45;;;;;;;1.92;0.80;;;5.00;99.90;;;;;;5013378;28;20498;-86
2023/10/15 04:41:11;;;;;;;1.75;0.77;;;5.70;99.90;;;;;;5026636;28;20402;-87
2023/10/15 04:43:45;;;;;;;3.45;1.00;;;5.70;99.90;;;;;;5024538;28;20106;-85
2023/10/15 04:46:17;;;;;;;2.63;0.75;;;5.70;99.90;;;;;;5029696;28;20037;-86
2023/10/15 04:48:47;;;;;;;;;;;5.80;99.90;;;;;;5030614;28;20057;-86
2023/10/15 04:51:13;;;;;;;4.25;0.90;;;5.80;99.90;;;;;;5028407;28;19921;-85
2023/10/15 04:53:48;;;;;;;3.53;1.10;;;5.70;99.90;;;;;;5029303;28;20151;-86
2023/10/15 04:56:15;;;;;;;2.03;0.80;;;5.80;99.90;;;;;;5027902;28;20455;-85
2023/10/15 04:58:41;;;;;;;1.40;0.65;;;5.80;99.90;;;;;;5042260;28;20046;-86
2023/10/15 05:01:08;;;;;;;3.25;1.10;;;5.90;99.90;;;;;;5025050;28;20098;-84
2023/10/15 05:03:34;;;;;;;2.58;0.98;;;6.00;99.90;;;;;;5028918;28;20049;-85
2023/10/15 05:06:06;;;;;;;2.20;0.80;;;6.00;99.90;;;;;;5028224;28;20085;-85
2023/10/15 05:08:32;;;;;;;1.35;0.77;;;6.10;99.90;;;;;;5028585;28;20060;-86
2023/10/15 05:10:58;;;;;;;1.58;0.60;;;6.10;99.90;;;;;;5028119;28;20049;-86
2023/10/15 05:13:26;;;;;;;3.10;0.70;;;6.20;99.90;;;;;;5025478;28;20090;-87
2023/10/15 05:15:52;;;;;;;5.95;1.10;;;6.20;99.90;;;;;;5012790;28;20048;-87
2023/10/15 05:18:18;;;;;;;1.83;0.70;;;6.30;99.90;;;;;;5025294;28;20045;-85
2023/10/15 05:20:48;;;;;;;2.00;0.70;;;6.30;99.90;;;;;;5029482;28;20502;-87
2023/10/15 05:23:14;;;;;;;1.48;0.55;;;6.30;99.90;;;;;;5027209;28;20127;-87
2023/10/15 05:25:43;;;;;;;5.43;0.82;;;6.30;99.90;;;;;;5045243;28;20063;-87
2023/10/15 05:28:13;;;;;;;2.53;0.70;;;6.40;99.90;;;;;;4996245;28;20050;-88
2023/10/15 05:30:39;;;;;;;2.72;0.93;;;6.30;99.90;;;;;;5029221;28;20049;-87
2023/10/15 05:33:07;;;;;;;2.88;0.80;;;6.40;99.90;;;;;;5011941;28;20044;-87
2023/10/15 05:35:34;;;;;;;2.15;0.50;;;6.40;99.90;;;;;;5028805;28;20084;-86
2023/10/15 05:38:00;;;;;;;4.72;0.70;;;6.40;99.90;;;;;;5037907;28;20041;-88
2023/10/15 05:40:26;;;;;;;2.22;0.60;;;6.40;99.90;;;;;;5029595;28;20106;-88
2023/10/15 05:42:53;;;;;;;2.05;0.80;;;6.40;99.90;;;;;;5030519;28;20402;-87
2023/10/15 05:45:19;;;;;;;3.25;0.50;;;6.70;99.90;;;;;;5029893;28;20049;-87
2023/10/15 05:47:45;;;;;;;1.88;0.63;;;6.40;99.90;;;;;;5030974;28;20390;-88
2023/10/15 05:50:16;;;;;;;3.13;0.70;;;6.50;99.90;;;;;;5031020;28;20044;-87
2023/10/15 05:52:42;;;;;;;1.17;0.45;;;6.50;99.90;;;;;;5008742;28;20038;-88
2023/10/15 05:55:08;;;;;;;3.13;1.00;;;6.50;99.90;;;;;;5030518;28;20045;-89
2023/10/15 05:57:34;;;;;;;2.72;0.80;;;6.50;99.90;;;;;;5031313;28;20136;-90
2023/10/15 06:00:17;;;;;;;2.40;0.77;;;6.50;99.90;;;;;;5019014;28;20041;-88
2023/10/15 06:02:46;;;;;;;1.50;0.70;;;6.40;99.90;;;;;;5035923;28;20064;-89
2023/10/15 06:05:13;;;;;;;1.98;0.63;;;6.10;99.90;;;;;;5038492;28;20490;-91
2023/10/15 06:07:42;;;;;;;2.03;0.60;;;6.30;99.90;;;;;;5033085;28;20117;-87
2023/10/15 06:10:11;;;;;;;2.75;0.63;;;6.40;99.90;;;;;;5028740;28;20041;-87
2023/10/15 06:12:37;;;;;;;1.17;0.50;;;6.40;99.90;;;;;;5030525;28;20053;-86
2023/10/15 06:15:04;;;;;;;3.17;0.70;;;6.30;99.90;;;;;;5034163;28;20057;-87
2023/10/15 06:17:29;;;;;;;1.80;0.73;;;6.30;99.90;;;;;;5034810;28;20056;-88
2023/10/15 06:19:55;;;;;;;3.47;0.98;;;6.40;99.90;;;;;;5033611;28;20414;-83
2023/10/15 06:22:21;;;;;;;1.48;0.73;;;6.40;99.90;;;;;;5034317;28;20056;-86
2023/10/15 06:24:46;;;;;;;3.95;0.93;;;6.40;99.90;;;;;;5021600;28;20119;-88
2023/10/15 06:27:13;;;;;;;0.60;0.50;;;6.50;99.90;;;;;;5017398;28;20368;-90
2023/10/15 06:29:39;;;;;;;2.10;0.60;;;6.50;99.90;;;;;;5031920;28;20445;-86
2023/10/15 06:32:05;;;;;;;0.93;0.55;;;6.50;99.90;;;;;;5016792;28;20044;-87
2023/10/15 06:34:31;;;;;;;6.95;0.60;;;6.50;99.90;;;;;;5033002;28;20052;-86
2023/10/15 06:36:57;;;;;;;3.78;0.80;;;7.00;99.90;;;;;;5032989;28;20045;-86
2023/10/15 06:39:23;;;;;;;0.77;0.65;;;6.50;99.90;;;;;;5031704;28;20051;-85
2023/10/15 06:41:48;;;;;;;4.05;0.68;;;6.50;99.90;;;;;;5032666;28;20062;-85
2023/10/15 06:44:15;;;;;;;3.30;0.50;;;6.50;99.90;;;;;;5032755;28;20067;-85
2023/10/15 06:46:41;;;;;;;1.63;0.50;;;6.50;99.90;;;;;;5016235;28;20049;-85
2023/10/15 06:49:07;;;;;;;2.97;0.75;;;6.50;99.90;;;;;;5032526;28;20037;-85
2023/10/15 06:51:34;;;;;;;3.03;0.57;;;6.50;99.90;;;;;;5031809;28;20072;-86
2023/10/15 06:54:00;;;;;;;0.80;0.68;;;6.50;99.90;;;;;;5025990;28;20079;-86
2023/10/15 06:56:27;;;;;;;2.03;0.60;;;6.40;99.90;;;;;;5032796;28;20049;-85
2023/10/15 06:58:52;;;;;;;0.57;0.45;;;6.40;99.90;;;;;;5031766;28;20049;-85
2023/10/15 07:01:18;;;;;;;2.85;0.52;;;6.40;99.90;;;;;;5032640;28;20083;-85
2023/10/15 07:03:44;;;;;;;2.90;0.55;;;6.40;99.90;;;;;;5032428;28;20049;-85
2023/10/15 07:06:12;;;;;;;0.95;0.40;;;6.40;99.90;;;;;;5031953;28;20037;-85
2023/10/15 07:08:38;;;;;;;0.40;0.32;;;6.40;99.90;;;;;;5032483;28;20091;-86
2023/10/15 07:11:05;;;;;;;0.82;0.70;;;6.30;99.90;;;;;;5007835;28;20068;-86
2023/10/15 07:13:32;;;;;;;1.20;0.40;;;6.30;99.90;;;;;;5015168;28;20052;-85
2023/10/15 07:15:57;;;;;;;2.13;0.60;;;6.30;99.90;;;;;;5032535;28;20425;-87
2023/10/15 07:18:23;;;;;;;1.23;0.60;;;6.40;99.90;;;;;;5029736;28;20052;-85
2023/10/15 07:20:48;;;;;;;1.85;0.60;;;6.40;99.90;;;;;;5012578;28;20558;-86
2023/10/15 07:23:14;;;;;;;0.63;0.30;;;6.40;99.90;;;;;;5033089;28;20142;-85
2023/10/15 07:25:42;;;;;;;0.95;0.50;;;7.10;99.90;;;;;;5031046;28;20548;-86
2023/10/15 07:28:10;;;;;;;3.90;0.70;;;6.50;99.90;;;;;;5048928;28;20052;-86
2023/10/15 07:30:35;;;;;;;1.73;0.82;;;6.50;99.90;;;;;;5030187;28;20061;-85
2023/10/15 07:33:01;;;;;;;1.30;0.30;;;6.50;99.90;;;;;;5031319;28;20053;-84
2023/10/15 07:35:31;;;;;;;1.55;0.50;;;6.50;99.90;;;;;;5032038;28;20143;-85
2023/10/15 07:37:58;;;;;;;3.03;0.43;;;6.60;99.90;;;;;;5026398;28;20273;-85
2023/10/15 07:40:27;;;;;;;2.90;0.50;;;6.60;99.90;;;;;;5031458;28;20041;-85
2023/10/15 07:42:58;;;;;;;1.05;0.55;;;6.60;99.90;;;;;;5014116;28;20041;-85
2023/10/15 07:45:28;;;;;;;2.70;0.50;;;6.70;99.90;;;;;;5010640;28;20440;-84
2023/10/15 07:47:55;;;;;;;2.30;0.88;;;6.70;99.90;;;;;;5031367;28;20444;-84
2023/10/15 07:50:23;;;;;;;6.22;1.20;;;6.70;99.90;;;;;;5031056;28;20033;-84
2023/10/15 07:52:50;;;;;;;3.47;0.90;;;6.70;99.90;;;;;;5015948;28;20049;-84
2023/10/15 07:55:17;;;;;;;2.92;0.90;;;6.60;99.90;;;;;;5030894;28;20047;-86
2023/10/15 07:57:42;;;;;;;2.15;0.88;;;6.60;99.90;;;;;;5031909;28;20037;-85
2023/10/15 08:00:15;;;;;;;2.75;0.82;;;6.70;99.90;;;;;;5030974;28;20437;-84
2023/10/15 08:02:49;;;;;;;3.65;0.82;;;6.70;99.90;;;;;;5031594;28;20099;-85
2023/10/15 08:05:15;;;;;;;2.85;0.98;;;6.70;99.90;;;;;;5025564;28;20045;-86
2023/10/15 08:07:43;;;;;;;2.20;0.93;;;6.70;99.90;;;;;;5030131;28;20428;-85
2023/10/15 08:10:10;;;;;;;2.60;1.02;;;6.70;99.90;;;;;;5012199;28;20098;-86
2023/10/15 08:12:36;;;;;;;2.92;0.68;;;6.80;99.90;;;;;;5028541;28;20122;-86
2023/10/15 08:15:02;;;;;;;2.85;0.70;;;6.80;99.90;;;;;;5031203;28;20398;-86
2023/10/15 08:17:29;;;;;;;3.78;0.85;;;6.90;99.90;;;;;;5014803;28;20053;-86
2023/10/15 08:19:55;;;;;;;2.78;1.08;;;7.00;99.90;;;;;;5030635;28;20457;-85
2023/10/15 08:22:21;;;;;;;4.35;0.90;;;7.20;99.90;;;;;;5031303;28;20040;-83
2023/10/15 08:24:46;;;;;;;1.90;0.60;;;7.30;99.90;;;;;;5030457;28;20062;-86
2023/10/15 08:27:13;;;;;;;4.55;0.77;;;8.10;99.90;;;;;;5013465;28;20048;-87
2023/10/15 08:29:42;;;;;;;3.25;0.70;;;7.80;99.90;;;;;;5031573;28;20054;-85
2023/10/15 08:32:16;;;;;;;2.22;0.82;;;8.00;99.90;;;;;;5030860;28;20045;-85
2023/10/15 08:34:43;;;;;;;1.67;0.60;;;8.00;99.90;;;;;;5030213;28;20053;-86
2023/10/15 08:37:10;;;;;;;2.97;0.80;;;8.00;99.90;;;;;;5028886;28;20043;-86
2023/10/15 08:39:38;;;;;;;3.88;0.60;;;8.00;99.90;;;;;;5030750;28;20036;-86
2023/10/15 08:42:11;;;;;;;1.02;0.55;;;8.10;99.90;;;;;;5030249;28;20053;-87
2023/10/15 08:44:38;;;;;;;2.67;0.70;;;8.10;99.90;;;;;;5030557;28;20128;-87
2023/10/15 08:47:06;;;;;;;2.03;0.50;;;8.20;99.90;;;;;;5030304;28;20521;-87
2023/10/15 08:49:37;;;;;;;1.63;0.85;;;8.30;99.90;;;;;;5022307;28;20130;-86
2023/10/15 08:52:06;;;;;;;1.02;0.60;;;8.70;99.90;;;;;;5014565;28;20573;-87
2023/10/15 08:54:38;;;;;;;1.48;0.60;;;8.70;99.90;;;;;;5013341;28;20048;-87
2023/10/15 08:57:09;;;;;;;1.58;0.60;;;9.50;99.90;;;;;;5030997;28;20091;-87
2023/10/15 08:59:36;;;;;;;2.58;0.85;;;8.90;99.90;;;;;;5023357;28;20048;-86
2023/10/15 09:02:05;;;;;;;1.13;0.52;;;8.90;99.90;;;;;;5031508;28;20498;-85
2023/10/15 09:04:32;;;;;;;1.27;0.70;;;8.90;99.90;;;;;;5029422;28;20055;-86
2023/10/15 09:07:01;;;;;;;5.13;0.68;;;9.00;99.90;;;;;;5030795;28;20049;-87
2023/10/15 09:09:32;;;;;;;2.92;0.70;;;9.20;99.90;;;;;;5030204;28;20619;-88
2023/10/15 09:11:58;;;;;;;2.05;0.70;;;9.40;99.90;;;;;;5013662;28;20056;-87
2023/10/15 09:14:40;;;;;;;4.55;1.00;;;9.60;99.90;;;;;;5030851;28;20045;-87
2023/10/15 09:17:10;;;;;;;1.63;0.80;;;9.60;99.90;;;;;;5029913;28;20045;-86
2023/10/15 09:19:39;;;;;;;3.15;0.73;;;9.70;99.90;;;;;;5030196;28;20057;-86
2023/10/15 09:22:06;;;;;;;13.65;1.17;;;9.70;99.90;;;;;;5030700;28;20045;-87
2023/10/15 09:24:32;;;;;;;4.13;0.80;;;9.60;99.90;;;;;;5030055;28;20717;-87
2023/10/15 09:27:00;;;;;;;4.88;1.10;;;9.80;99.90;;;;;;5029229;28;20049;-86
2023/10/15 09:29:30;;;;;;;4.22;0.80;;;9.40;99.90;;;;;;5031178;28;20466;-88
2023/10/15 09:31:57;;;;;;;3.97;0.80;;;9.50;99.90;;;;;;5030249;28;20052;-87
2023/10/15 09:34:23;;;;;;;2.70;0.80;;;9.50;99.90;;;;;;5031011;28;20053;-87
2023/10/15 09:36:49;;;;;;;1.70;0.70;;;9.60;99.90;;;;;;5029780;28;20131;-88
2023/10/15 09:39:15;;;;;;;3.38;0.68;;;9.70;99.90;;;;;;5047517;28;20154;-86
2023/10/15 09:41:41;;;;;;;5.47;1.13;;;9.80;99.90;;;;;;5030695;28;20474;-87
2023/10/15 09:44:17;;;;;;;4.95;1.00;;;9.90;99.90;;;;;;5030423;28;20056;-88
2023/10/15 09:46:43;;;;;;;3.72;1.10;;;10.00;99.90;;;;;;5030969;28;20435;-88
2023/10/15 09:49:10;;;;;;;5.50;1.08;;;10.10;99.90;;;;;;5007804;28;20478;-87
2023/10/15 09:51:37;;;;;;;6.75;1.73;;;10.20;99.90;;;;;;5010949;28;20041;-86
2023/10/15 09:54:03;;;;;;;6.28;1.00;;;10.30;99.90;;;;;;5024489;28;20098;-87
2023/10/15 09:56:30;;;;;;;2.72;0.80;;;10.40;99.90;;;;;;5012428;28;20045;-87
2023/10/15 09:58:56;;;;;;;1.33;0.70;;;10.50;99.90;;;;;;5029296;28;20047;-87
2023/10/15 10:01:28;;;;;;;3.85;1.25;;;10.70;99.90;;;;;;5030221;28;20469;-87
2023/10/15 10:04:40;;;;;;;3.92;0.90;;;10.90;99.90;;;;;;5030047;28;20095;-87
2023/10/15 10:07:38;;;;;;;3.38;1.42;;;11.00;99.90;;;;;;5030196;28;20674;-87
2023/10/15 10:10:22;;;;;;;2.42;0.90;;;10.90;99.90;;;;;;5007926;28;20068;-87
2023/10/15 10:13:10;;;;;;;4.82;0.98;;;11.00;99.90;;;;;;5029187;28;20402;-88
2023/10/15 10:15:49;;;;;;;2.83;0.70;;;11.20;99.90;;;;;;5029819;28;20164;-86
2023/10/15 10:18:15;;;;;;;4.43;1.00;;;11.20;99.90;;;;;;5030564;28;20812;-88
2023/10/15 10:20:48;;;;;;;3.53;0.75;;;11.20;99.90;;;;;;5027248;28;20045;-88
2023/10/15 10:23:14;;;;;;;;;;;11.00;99.90;;;;;;5024609;28;20053;-86
2023/10/15 10:25:42;;;;;;;3.33;0.75;;;10.60;99.90;;;;;;5025810;28;19925;-85
2023/10/15 10:28:35;;;;;;;4.43;1.10;;;10.30;99.90;;;;;;5025445;28;20092;-84
2023/10/15 10:31:01;;;;;;;3.15;0.80;;;10.70;99.90;;;;;;5012525;28;20675;-86
2023/10/15 10:33:49;;;;;;;3.15;1.00;;;9.90;99.90;;;;;;5025371;28;20073;-86
2023/10/15 10:36:29;;;;;;;2.35;0.73;;;9.70;99.90;;;;;;5023270;28;20057;-85
2023/10/15 10:39:07;;;;;;;5.15;1.08;;;9.60;99.90;;;;;;5027041;28;20124;-87
2023/10/15 10:41:38;;;;;;;4.07;1.52;;;9.50;99.90;;;;;;5026571;28;20052;-86
2023/10/15 10:44:28;;;;;;;4.13;0.90;;;9.50;99.90;;;;;;5009052;28;20045;-87
2023/10/15 10:46:56;;;;;;;3.03;0.95;;;9.50;99.90;;;;;;5012929;28;20057;-88
2023/10/15 10:49:55;;;;;;;4.03;0.73;;;9.40;99.90;;;;;;5010509;28;20415;-85
2023/10/15 10:52:28;;;;;;;3.38;0.90;;;9.40;99.90;;;;;;5025287;28;20125;-86
2023/10/15 10:54:57;;;;;;;4.53;0.80;;;9.30;99.90;;;;;;5025489;28;20045;-85
2023/10/15 10:57:31;;;;;;;2.22;0.95;;;9.30;99.90;;;;;;5025972;28;20045;-86
2023/10/15 10:59:58;;;;;;;4.53;1.27;;;9.30;99.90;;;;;;5025797;28;20055;-86
2023/10/15 11:02:23;;;;;;;2.25;0.75;;;9.40;99.90;;;;;;5047017;28;20052;-87
2023/10/15 11:04:50;;;;;;;3.28;0.80;;;9.50;99.90;;;;;;5011894;28;20042;-86
2023/10/15 11:07:16;;;;;;;3.65;1.30;;;9.60;99.90;;;;;;5028902;28;20052;-86
2023/10/15 11:09:42;;;;;;;3.45;0.82;;;9.80;99.90;;;;;;5028740;28;20041;-86
2023/10/15 11:12:16;;;;;;;3.47;1.00;;;9.80;99.90;;;;;;5012930;28;20438;-85
2023/10/15 11:14:42;;;;;;;2.78;1.00;;;9.90;99.90;;;;;;5023804;28;20133;-88
2023/10/15 11:17:11;;;;;;;3.38;0.70;;;10.10;99.90;;;;;;5027861;28;20041;-88
2023/10/15 11:19:37;;;;;;;2.45;0.82;;;10.50;99.90;;;;;;5030002;28;20511;-87
2023/10/15 11:22:03;;;;;;;2.83;1.00;;;10.30;99.90;;;;;;5029817;28;20041;-87
2023/10/15 11:24:32;;;;;;;3.33;0.98;;;10.40;99.90;;;;;;5045382;28;20061;-87
2023/10/15 11:26:59;;;;;;;3.67;1.25;;;10.40;99.90;;;;;;5027884;28;20075;-86
2023/10/15 11:29:25;;;;;;;3.25;0.85;;;10.60;99.90;;;;;;5030116;28;20038;-85
2023/10/15 11:31:56;;;;;;;6.22;1.25;;;10.70;99.90;;;;;;5029578;28;20127;-86
2023/10/15 11:34:24;;;;;;;3.45;1.15;;;10.80;99.90;;;;;;5030315;28;20048;-87
2023/10/15 11:36:51;;;;;;;4.78;1.95;;;10.90;99.90;;;;;;5029499;28;20063;-86
2023/10/15 11:39:19;;;;;;;4.78;1.85;;;11.00;99.90;;;;;;5012614;28;20079;-87
2023/10/15 11:41:52;;;;;;;3.17;1.02;;;11.00;99.90;;;;;;5028482;28;20041;-88
2023/10/15 11:44:25;;;;;;;4.95;2.33;;;11.00;99.90;;;;;;5027259;28;20046;-86
2023/10/15 11:46:52;;;;;;;3.90;1.45;;;11.10;99.90;;;;;;5014407;28;20045;-87
2023/10/15 11:49:22;;;;;;;4.05;1.00;;;11.00;99.90;;;;;;5026950;28;20049;-89
2023/10/15 11:51:48;;;;;;;2.60;0.90;;;10.80;99.90;;;;;;5029665;28;20057;-88
2023/10/15 11:54:16;;;;;;;1.70;0.80;;;11.10;99.90;;;;;;5017002;28;20060;-90
2023/10/15 11:56:50;;;;;;;2.35;0.70;;;11.10;99.90;;;;;;5012065;28;20044;-88
2023/10/15 11:59:16;;;;;;;2.95;0.90;;;11.20;99.90;;;;;;5013423;28;20054;-87
2023/10/15 12:01:50;;;;;;;1.50;0.95;;;11.30;99.90;;;;;;5030319;28;20045;-88
2023/10/15 12:04:17;;;;;;;4.63;0.88;;;11.20;99.90;;;;;;5024220;28;20049;-86
2023/10/15 12:06:43;;;;;;;2.13;1.38;;;11.30;99.90;;;;;;5010005;28;20115;-87
2023/10/15 12:09:12;;;;;;;4.18;1.10;;;11.30;99.90;;;;;;5009465;28;20057;-86
2023/10/15 12:11:39;;;;;;;3.80;1.15;;;11.20;99.90;;;;;;5007380;28;20049;-86
2023/10/15 12:14:05;;;;;;;4.30;1.02;;;11.20;99.90;;;;;;5021762;28;20526;-87
2023/10/15 12:16:31;;;;;;;2.75;0.77;;;11.20;99.90;;;;;;5027884;28;20041;-85
2023/10/15 12:18:57;;;;;;;3.60;1.02;;;11.20;99.90;;;;;;5028058;28;20421;-86
2023/10/15 12:21:23;;;;;;;2.00;1.02;;;11.30;99.90;;;;;;5012085;28;20061;-86
2023/10/15 12:23:50;;;;;;;1.33;0.70;;;11.30;99.90;;;;;;5028602;28;20045;-85
2023/10/15 12:26:16;;;;;;;2.10;0.73;;;11.70;99.90;;;;;;5027022;28;20077;-86
2023/10/15 12:28:46;;;;;;;3.33;0.63;;;11.50;99.90;;;;;;5027032;28;20073;-87
2023/10/15 12:31:12;;;;;;;2.13;0.80;;;11.60;99.90;;;;;;5027652;28;20559;-84
2023/10/15 12:33:38;;;;;;;3.20;0.80;;;11.50;99.90;;;;;;5028141;28;20124;-85
2023/10/15 12:36:07;;;;;;;2.35;0.70;;;11.60;99.90;;;;;;5029641;28;20045;-86
2023/10/15 12:38:34;;;;;;;2.00;0.60;;;11.60;99.90;;;;;;5028090;28;20049;-89
2023/10/15 12:41:00;;;;;;;2.38;0.73;;;11.60;99.90;;;;;;5026863;28;20087;-86
2023/10/15 12:43:26;;;;;;;4.15;0.80;;;12.00;99.90;;;;;;5026019;28;20049;-86
2023/10/15 12:45:53;;;;;;;1.58;0.70;;;11.70;99.90;;;;;;5010907;28;20091;-87
2023/10/15 12:48:22;;;;;;;6.07;0.80;;;12.00;99.90;;;;;;5026612;28;20054;-85
2023/10/15 12:50:48;;;;;;;4.55;1.00;;;11.60;99.90;;;;;;5026247;28;20499;-87
2023/10/15 12:53:15;;;;;;;5.88;1.00;;;11.80;99.90;;;;;;5008369;28;20083;-88
2023/10/15 12:55:42;;;;;;;1.85;0.88;;;11.50;99.90;;;;;;5010830;28;20188;-87
2023/10/15 12:58:10;;;;;;;2.05;0.98;;;11.60;99.90;;;;;;5025164;28;20463;-86
2023/10/15 13:00:39;;;;;;;3.67;0.80;;;11.90;99.90;;;;;;5025980;28;20199;-86
2023/10/15 13:03:05;;;;;;;3.35;1.02;;;11.60;99.90;;;;;;5027387;28;20107;-87
2023/10/15 13:05:31;;;;;;;4.85;1.00;;;11.60;99.90;;;;;;5011370;28;20490;-87
2023/10/15 13:07:57;;;;;;;7.07;1.27;;;11.30;99.90;;;;;;5027643;28;20107;-85
2023/10/15 13:10:23;;;;;;;3.97;0.75;;;11.00;99.90;;;;;;5027048;28;20602;-86
2023/10/15 13:12:50;;;;;;;3.35;1.13;;;10.70;99.90;;;;;;5026953;28;20091;-86
2023/10/15 13:15:18;;;;;;;4.85;0.82;;;10.50;99.90;;;;;;5026038;28;20045;-84
2023/10/15 13:17:44;;;;;;;4.07;1.20;;;10.30;99.90;;;;;;5027092;28;20094;-88
2023/10/15 13:20:14;;;;;;;2.72;0.93;;;10.10;99.90;;;;;;5026910;28;20511;-86
2023/10/15 13:22:40;;;;;;;1.77;0.70;;;10.00;99.90;;;;;;5026870;28;20050;-85
2023/10/15 13:25:13;;;;;;;1.83;0.82;;;10.00;99.90;;;;;;5024735;28;20044;-86